Time;durP1;ratioP1;P1;durP2;ratioP2;P2;SDS_P1;SDS_P2;PMS_P1;PMS_P2;Temp;Humidity;BMP_temperature;BMP_pressure;BME280_temperature;BME280_humidity;BME280_pressure;Samples;Min_cycle;Max_cycle;Signal;HPM_P1;HPM_P2
2023/11/28 00:01:16;;;;;;;;;;;;;;;17.00;47.44;97463.59;10331518;28;1894;-71
2023/11/28 00:06:11;;;;;;;;;;;;;;;16.98;47.46;97461.09;10331848;28;857;-71
2023/11/28 00:11:08;;;;;;;;;;;;;;;17.00;47.38;97469.72;10330799;28;830;-72
2023/11/28 00:16:04;;;;;;;;;;;;;;;16.94;47.54;97467.53;10330636;28;863;-71
2023/11/28 00:20:59;;;;;;;;;;;;;;;16.93;47.60;97483.44;10330235;28;1902;-71
2023/11/28 00:25:55;;;;;;;;;;;;;;;16.95;47.44;97486.78;10330716;28;929;-71
2023/11/28 00:30:51;;;;;;;;;;;;;;;16.96;47.55;97499.00;10329360;28;905;-71
2023/11/28 00:35:47;;;;;;;;;;;;;;;16.92;47.57;97506.28;10329828;28;1140;-71
2023/11/28 00:40:43;;;;;;;;;;;;;;;16.92;47.66;97515.97;10329700;28;1926;-72
2023/11/28 00:45:40;;;;;;;;;;;;;;;16.93;47.48;97510.59;10330115;28;818;-71
2023/11/28 00:50:36;;;;;;;;;;;;;;;16.92;47.49;97523.84;10329982;28;867;-72
2023/11/28 00:55:31;;;;;;;;;;;;;;;16.89;47.61;97527.56;10329779;28;873;-71
2023/11/28 01:00:27;;;;;;;;;;;;;;;16.93;47.45;97536.09;10328446;28;1893;-72
2023/11/28 01:05:23;;;;;;;;;;;;;;;16.94;47.64;97548.28;10329229;28;985;-71
2023/11/28 01:10:19;;;;;;;;;;;;;;;16.91;47.66;97549.34;10328294;28;818;-71
2023/11/28 01:15:15;;;;;;;;;;;;;;;16.95;47.43;97555.19;10328839;28;898;-71
2023/11/28 01:20:11;;;;;;;;;;;;;;;16.94;47.56;97567.53;10327898;28;1897;-71
2023/11/28 01:25:07;;;;;;;;;;;;;;;16.89;47.56;97564.41;10328395;28;883;-71
2023/11/28 01:30:03;;;;;;;;;;;;;;;16.90;47.53;97576.63;10327943;28;826;-71
2023/11/28 01:34:58;;;;;;;;;;;;;;;16.92;47.32;97595.75;10327214;28;1299;-71
2023/11/28 01:39:54;;;;;;;;;;;;;;;16.92;47.61;97602.81;10327379;28;1910;-71
2023/11/28 01:44:50;;;;;;;;;;;;;;;16.86;47.71;97615.44;10328134;28;1724;-71
2023/11/28 01:49:46;;;;;;;;;;;;;;;16.89;47.67;97613.56;10326929;28;847;-71
2023/11/28 01:54:42;;;;;;;;;;;;;;;16.88;47.58;97625.88;10326611;28;857;-71
2023/11/28 01:59:38;;;;;;;;;;;;;;;16.84;47.69;97633.13;10327042;28;1964;-71
2023/11/28 02:04:34;;;;;;;;;;;;;;;16.85;47.71;97647.16;10326293;28;790;-71
2023/11/28 02:09:30;;;;;;;;;;;;;;;16.85;47.68;97661.16;10326010;28;938;-71
2023/11/28 02:14:26;;;;;;;;;;;;;;;16.83;47.65;97673.56;10324906;28;893;-72
2023/11/28 02:19:22;;;;;;;;;;;;;;;16.82;47.67;97681.56;10325866;28;1955;-71
2023/11/28 02:24:18;;;;;;;;;;;;;;;16.83;47.58;97683.25;10325776;28;921;-71
2023/11/28 02:29:13;;;;;;;;;;;;;;;16.83;47.66;97697.25;10326285;28;861;-72
2023/11/28 02:34:09;;;;;;;;;;;;;;;16.81;47.72;97712.28;10325969;28;1113;-71
2023/11/28 02:39:05;;;;;;;;;;;;;;;16.84;47.51;97719.97;10324704;28;1969;-71
2023/11/28 02:44:02;;;;;;;;;;;;;;;16.82;47.46;97719.25;10325383;28;868;-71
2023/11/28 02:48:57;;;;;;;;;;;;;;;16.82;47.57;97729.78;10325801;28;853;-71
2023/11/28 02:53:53;;;;;;;;;;;;;;;16.81;47.51;97738.59;10325219;28;763;-71
2023/11/28 02:58:50;;;;;;;;;;;;;;;16.83;47.61;97756.94;10324362;28;1893;-71
2023/11/28 03:03:46;;;;;;;;;;;;;;;16.81;47.53;97759.66;10324961;28;838;-71
2023/11/28 03:08:42;;;;;;;;;;;;;;;16.81;47.45;97764.91;10324780;28;869;-71
2023/11/28 03:13:38;;;;;;;;;;;;;;;16.83;47.58;97776.19;10325392;28;965;-71
2023/11/28 03:18:34;;;;;;;;;;;;;;;16.80;47.51;97778.19;10325239;28;1965;-71
2023/11/28 03:23:30;;;;;;;;;;;;;;;16.78;47.75;97780.94;10326406;28;794;-72
2023/11/28 03:28:26;;;;;;;;;;;;;;;16.81;47.67;97788.59;10332436;28;886;-72
2023/11/28 03:33:22;;;;;;;;;;;;;;;16.78;47.45;97794.09;10332204;28;1097;-71
2023/11/28 03:38:18;;;;;;;;;;;;;;;16.76;47.58;97798.56;10331135;28;1910;-72
2023/11/28 03:43:14;;;;;;;;;;;;;;;16.76;47.63;97814.34;10331784;28;838;-71
2023/11/28 03:48:10;;;;;;;;;;;;;;;16.78;47.52;97812.50;10332168;28;850;-71
2023/11/28 03:53:05;;;;;;;;;;;;;;;16.77;47.48;97831.00;10331357;28;771;-71
2023/11/28 03:58:01;;;;;;;;;;;;;;;16.75;47.56;97836.38;10331137;28;1913;-71
2023/11/28 04:02:57;;;;;;;;;;;;;;;16.77;47.46;97858.19;10331742;28;802;-71
2023/11/28 04:07:53;;;;;;;;;;;;;;;16.77;47.62;97870.47;10330883;28;901;-71
2023/11/28 04:12:49;;;;;;;;;;;;;;;16.76;47.59;97874.88;10331217;28;867;-71
2023/11/28 04:17:45;;;;;;;;;;;;;;;16.79;47.52;97877.34;10331252;28;845;-72
2023/11/28 04:22:41;;;;;;;;;;;;;;;16.77;47.46;97892.38;10330261;28;1893;-71
2023/11/28 04:27:37;;;;;;;;;;;;;;;16.79;47.56;97901.03;10330275;28;968;-71
2023/11/28 04:32:32;;;;;;;;;;;;;;;16.81;47.48;97912.25;10330345;28;1487;-71
2023/11/28 04:37:28;;;;;;;;;;;;;;;16.85;47.35;97918.19;10328709;28;1012;-71
2023/11/28 04:42:24;;;;;;;;;;;;;;;16.86;47.24;97923.31;10329562;28;1918;-71
2023/11/28 04:47:20;;;;;;;;;;;;;;;16.91;47.26;97927.44;10329437;28;786;-71
2023/11/28 04:52:16;;;;;;;;;;;;;;;16.86;47.35;97931.22;10329211;28;949;-71
2023/11/28 04:57:12;;;;;;;;;;;;;;;16.94;47.07;97945.66;10329019;28;1105;-72
2023/11/28 05:02:08;;;;;;;;;;;;;;;16.91;47.09;97954.59;10328703;28;1961;-69
2023/11/28 05:07:04;;;;;;;;;;;;;;;16.83;47.38;97968.25;10328615;28;814;-72
2023/11/28 05:11:59;;;;;;;;;;;;;;;16.95;46.93;97976.25;10327685;28;956;-72
2023/11/28 05:16:55;;;;;;;;;;;;;;;17.01;46.54;97981.97;10325323;28;1160;-74
2023/11/28 05:21:53;;;;;;;;;;;;;;;17.05;46.55;97985.22;10326882;28;1959;-72
2023/11/28 05:26:49;;;;;;;;;;;;;;;17.11;46.13;97995.34;10327606;28;887;-72
2023/11/28 05:31:45;;;;;;;;;;;;;;;17.16;46.34;98006.41;10327970;28;1110;-72
2023/11/28 05:36:41;;;;;;;;;;;;;;;17.08;46.50;98020.09;10326435;28;1372;-71
2023/11/28 05:41:37;;;;;;;;;;;;;;;17.14;46.36;98012.72;10326948;28;1910;-72
2023/11/28 05:46:32;;;;;;;;;;;;;;;17.16;46.26;98030.09;10325502;28;807;-72
2023/11/28 05:51:30;;;;;;;;;;;;;;;17.18;46.39;98036.09;10326626;28;897;-72
2023/11/28 05:56:27;;;;;;;;;;;;;;;17.20;46.50;98046.53;10325058;28;1884;-72
2023/11/28 06:01:23;;;;;;;;;;;;;;;17.12;46.71;98070.75;10326160;28;1983;-72
2023/11/28 06:06:18;;;;;;;;;;;;;;;17.16;46.59;98074.88;10326673;28;937;-72
2023/11/28 06:11:15;;;;;;;;;;;;;;;17.14;46.56;98082.03;10326490;28;794;-72
2023/11/28 06:16:13;;;;;;;;;;;;;;;17.13;46.42;98096.09;10325644;28;965;-72
2023/11/28 06:21:09;;;;;;;;;;;;;;;17.14;46.51;98105.72;10326463;28;1898;-72
2023/11/28 06:26:05;;;;;;;;;;;;;;;17.06;46.94;98127.28;10326660;28;850;-72
2023/11/28 06:31:01;;;;;;;;;;;;;;;17.08;46.78;98141.19;10326258;28;893;-72
2023/11/28 06:35:57;;;;;;;;;;;;;;;17.13;46.38;98153.19;10325777;28;1681;-71
2023/11/28 06:40:53;;;;;;;;;;;;;;;17.12;46.55;98157.63;10325979;28;1922;-72
2023/11/28 06:45:49;;;;;;;;;;;;;;;17.12;46.52;98176.03;10323850;28;818;-72
2023/11/28 06:50:45;;;;;;;;;;;;;;;17.16;46.42;98190.72;10325130;28;781;-72
2023/11/28 06:55:41;;;;;;;;;;;;;;;17.09;46.66;98199.94;10325878;28;850;-71
2023/11/28 07:00:37;;;;;;;;;;;;;;;17.09;46.66;98215.75;10331812;28;1964;-72
2023/11/28 07:05:33;;;;;;;;;;;;;;;17.08;46.47;98222.78;10333421;28;949;-72
2023/11/28 07:10:29;;;;;;;;;;;;;;;17.04;46.70;98230.97;10333464;28;941;-73
2023/11/28 07:15:25;;;;;;;;;;;;;;;17.02;46.42;98238.13;10332522;28;888;-72
2023/11/28 07:20:21;;;;;;;;;;;;;;;16.99;46.49;98243.59;10332320;28;1898;-72
2023/11/28 07:25:17;;;;;;;;;;;;;;;16.95;46.51;98242.97;10332574;28;849;-71
2023/11/28 07:30:13;;;;;;;;;;;;;;;16.88;46.65;98254.81;10333074;28;872;-71
2023/11/28 07:35:09;;;;;;;;;;;;;;;16.83;46.72;98267.41;10332171;28;1078;-69
2023/11/28 07:40:05;;;;;;;;;;;;;;;16.83;46.66;98284.03;10331827;28;1969;-72
2023/11/28 07:45:01;;;;;;;;;;;;;;;16.91;46.69;98295.88;10331728;28;913;-72
2023/11/28 07:49:58;;;;;;;;;;;;;;;16.94;46.40;98306.19;10329147;28;1176;-72
2023/11/28 07:54:54;;;;;;;;;;;;;;;16.97;46.38;98314.75;10331686;28;811;-72
2023/11/28 07:59:50;;;;;;;;;;;;;;;17.00;46.34;98324.22;10331013;28;1906;-72
2023/11/28 08:04:46;;;;;;;;;;;;;;;17.05;46.10;98330.91;10331280;28;872;-72
2023/11/28 08:09:42;;;;;;;;;;;;;;;17.09;46.01;98342.94;10329663;28;837;-71
2023/11/28 08:14:38;;;;;;;;;;;;;;;17.14;45.80;98350.56;10330946;28;829;-72
2023/11/28 08:19:34;;;;;;;;;;;;;;;17.11;46.06;98361.28;10331240;28;1902;-71
2023/11/28 08:24:30;;;;;;;;;;;;;;;17.13;45.94;98372.53;10329555;28;1184;-71
2023/11/28 08:29:25;;;;;;;;;;;;;;;17.13;46.05;98384.88;10328300;28;1018;-71
2023/11/28 08:34:21;;;;;;;;;;;;;;;17.19;45.83;98390.59;10328870;28;1237;-71
2023/11/28 08:39:17;;;;;;;;;;;;;;;17.22;45.69;98398.31;10329711;28;1910;-71
2023/11/28 08:44:13;;;;;;;;;;;;;;;17.20;45.76;98415.16;10329022;28;826;-73
2023/11/28 08:49:09;;;;;;;;;;;;;;;17.18;45.81;98428.41;10329614;28;940;-72
2023/11/28 08:54:05;;;;;;;;;;;;;;;17.21;45.88;98438.75;10329773;28;889;-71
2023/11/28 08:59:01;;;;;;;;;;;;;;;17.19;45.81;98440.63;10329401;28;1897;-71
2023/11/28 09:03:58;;;;;;;;;;;;;;;17.25;45.66;98449.94;10329380;28;806;-72
2023/11/28 09:08:54;;;;;;;;;;;;;;;17.28;45.86;98457.66;10328556;28;953;-74
2023/11/28 09:13:50;;;;;;;;;;;;;;;17.23;45.72;98465.81;10328391;28;914;-71
2023/11/28 09:18:45;;;;;;;;;;;;;;;17.27;45.82;98469.97;10328094;28;1902;-72
2023/11/28 09:23:42;;;;;;;;;;;;;;;17.29;45.63;98481.28;10327881;28;818;-76
2023/11/28 09:28:38;;;;;;;;;;;;;;;17.29;45.70;98481.28;10327695;28;933;-71
2023/11/28 09:33:35;;;;;;;;;;;;;;;17.37;45.69;98487.84;10326988;28;1239;-71
2023/11/28 09:38:30;;;;;;;;;;;;;;;17.29;45.90;98499.69;10327296;28;1914;-70
2023/11/28 09:43:26;;;;;;;;;;;;;;;17.28;45.83;98502.41;10327776;28;819;-72
2023/11/28 09:48:22;;;;;;;;;;;;;;;17.33;45.59;98504.78;10326959;28;798;-71
2023/11/28 09:53:18;;;;;;;;;;;;;;;17.29;45.79;98518.13;10327978;28;854;-71
2023/11/28 09:58:14;;;;;;;;;;;;;;;17.34;45.69;98524.91;10327134;28;1951;-71
2023/11/28 10:03:11;;;;;;;;;;;;;;;17.34;45.51;98535.44;10326538;28;762;-71
2023/11/28 10:08:07;;;;;;;;;;;;;;;17.33;45.48;98534.59;10326334;28;841;-71
2023/11/28 10:13:03;;;;;;;;;;;;;;;17.37;45.47;98535.25;10326882;28;888;-71
2023/11/28 10:18:00;;;;;;;;;;;;;;;17.33;45.74;98541.66;10327184;28;834;-71
2023/11/28 10:22:56;;;;;;;;;;;;;;;17.34;45.53;98546.81;10325761;28;1885;-71
2023/11/28 10:27:58;;;;;;;;;;;;;;;17.39;45.35;98544.75;10325776;28;947;-71
2023/11/28 10:32:53;;;;;;;;;;;;;;;17.40;45.37;98549.09;10325775;28;1250;-71
2023/11/28 10:37:49;;;;;;;;;;;;;;;17.38;45.70;98552.75;10326315;28;830;-71
2023/11/28 10:42:45;;;;;;;;;;;;;;;17.41;45.57;98555.19;10325500;28;1977;-71
2023/11/28 10:47:41;;;;;;;;;;;;;;;17.40;45.61;98553.53;10326571;28;936;-71
2023/11/28 10:52:37;;;;;;;;;;;;;;;17.40;45.65;98550.88;10325853;28;962;-71
2023/11/28 10:57:33;;;;;;;;;;;;;;;17.44;45.45;98545.31;10325774;28;826;-71
2023/11/28 11:02:29;;;;;;;;;;;;;;;17.43;45.27;98555.97;10325012;28;1890;-71
2023/11/28 11:07:25;;;;;;;;;;;;;;;17.41;45.36;98560.47;10324997;28;873;-71
2023/11/28 11:12:21;;;;;;;;;;;;;;;17.39;45.58;98565.81;10325550;28;913;-71
2023/11/28 11:17:17;;;;;;;;;;;;;;;17.39;45.51;98567.59;10324707;28;895;-71
2023/11/28 11:22:13;;;;;;;;;;;;;;;17.39;45.51;98578.16;10325180;28;1953;-71
2023/11/28 11:27:09;;;;;;;;;;;;;;;17.39;45.51;98578.97;10324611;28;882;-71
2023/11/28 11:32:08;;;;;;;;;;;;;;;17.38;45.64;98579.09;10324483;28;935;-71
2023/11/28 11:37:04;;;;;;;;;;;;;;;17.38;45.44;98585.22;10324535;28;1239;-71
2023/11/28 11:42:00;;;;;;;;;;;;;;;17.37;45.50;98580.03;10324863;28;1973;-71
2023/11/28 11:46:56;;;;;;;;;;;;;;;17.39;45.44;98580.78;10329323;28;759;-71
2023/11/28 11:51:56;;;;;;;;;;;;;;;17.40;45.60;98587.75;10331584;28;877;-71
2023/11/28 11:56:52;;;;;;;;;;;;;;;17.37;45.29;98580.88;10331992;28;862;-71
2023/11/28 12:01:48;;;;;;;;;;;;;;;17.41;45.44;98589.44;10331189;28;1906;-71
2023/11/28 12:06:44;;;;;;;;;;;;;;;17.40;45.30;98588.59;10331095;28;772;-71
2023/11/28 12:11:40;;;;;;;;;;;;;;;17.39;45.43;98586.88;10331202;28;945;-71
2023/11/28 12:16:35;;;;;;;;;;;;;;;17.42;45.40;98597.28;10331948;28;849;-70
2023/11/28 12:21:31;;;;;;;;;;;;;;;17.48;45.31;98598.69;10330370;28;1940;-70
2023/11/28 12:26:27;;;;;;;;;;;;;;;17.64;44.87;98609.97;10330383;28;980;-71
2023/11/28 12:31:23;;;;;;;;;;;;;;;17.74;44.60;98605.00;10330188;28;775;-71
2023/11/28 12:36:25;;;;;;;;;;;;;;;17.72;44.71;98615.63;10330476;28;1160;-71
2023/11/28 12:41:21;;;;;;;;;;;;;;;17.66;45.03;98615.16;10330404;28;1963;-71
2023/11/28 12:46:17;;;;;;;;;;;;;;;17.62;45.01;98624.19;10329561;28;826;-70
2023/11/28 12:51:13;;;;;;;;;;;;;;;17.60;45.17;98636.59;10329354;28;897;-71
2023/11/28 12:56:09;;;;;;;;;;;;;;;17.56;45.17;98643.84;10328715;28;844;-71
2023/11/28 13:01:04;;;;;;;;;;;;;;;17.53;45.11;98630.88;10328908;28;1902;-71
2023/11/28 13:06:00;;;;;;;;;;;;;;;17.51;45.36;98635.38;10328778;28;809;-71
2023/11/28 13:10:56;;;;;;;;;;;;;;;17.51;45.27;98646.75;10329411;28;882;-71
2023/11/28 13:15:52;;;;;;;;;;;;;;;17.50;45.25;98649.47;10328985;28;839;-71
2023/11/28 13:20:49;;;;;;;;;;;;;;;17.48;45.18;98654.84;10328025;28;2029;-71
2023/11/28 13:25:45;;;;;;;;;;;;;;;17.49;45.25;98655.69;10327775;28;822;-71
2023/11/28 13:30:41;;;;;;;;;;;;;;;17.39;45.45;98665.06;10327758;28;819;-71
2023/11/28 13:35:38;;;;;;;;;;;;;;;17.45;45.30;98672.63;10328294;28;1105;-71
2023/11/28 13:40:34;;;;;;;;;;;;;;;17.46;45.29;98674.31;10328210;28;1973;-74
2023/11/28 13:45:33;;;;;;;;;;;;;;;17.44;45.63;98676.19;10326639;28;886;-71
2023/11/28 13:50:29;;;;;;;;;;;;;;;17.40;45.51;98687.84;10326937;28;886;-68
2023/11/28 13:55:25;;;;;;;;;;;;;;;17.11;46.28;98693.03;10327450;28;817;-69
2023/11/28 14:00:21;;;;;;;;;;;;;;;17.08;45.66;98691.41;10326531;28;1898;-68
2023/11/28 14:05:18;;;;;;;;;;;;;;;17.12;45.31;98692.06;10327110;28;880;-68
2023/11/28 14:10:14;;;;;;;;;;;;;;;17.13;44.88;98706.91;10326237;28;762;-68
2023/11/28 14:15:10;;;;;;;;;;;;;;;17.09;44.69;98706.25;10325862;28;868;-71
2023/11/28 14:20:07;;;;;;;;;;;;;;;17.24;44.28;98709.81;10325644;28;1901;-71
2023/11/28 14:25:03;;;;;;;;;;;;;;;17.31;43.95;98715.56;10325618;28;810;-71
2023/11/28 14:29:59;;;;;;;;;;;;;;;17.34;43.87;98722.44;10326096;28;790;-71
2023/11/28 14:34:56;;;;;;;;;;;;;;;17.33;44.01;98720.75;10325539;28;1421;-72
2023/11/28 14:39:52;;;;;;;;;;;;;;;17.33;44.24;98723.38;10325231;28;1967;-71
2023/11/28 14:44:48;;;;;;;;;;;;;;;17.35;44.11;98727.63;10325798;28;968;-71
2023/11/28 14:49:44;;;;;;;;;;;;;;;17.37;44.40;98719.63;10324999;28;938;-71
2023/11/28 14:54:40;;;;;;;;;;;;;;;17.38;44.29;98734.50;10325612;28;849;-72
2023/11/28 14:59:37;;;;;;;;;;;;;;;17.40;44.27;98740.53;10325474;28;1890;-72
2023/11/28 15:04:34;;;;;;;;;;;;;;;17.34;44.32;98731.19;10324955;28;867;-71
2023/11/28 15:09:31;;;;;;;;;;;;;;;17.36;44.52;98744.28;10325654;28;802;-71
2023/11/28 15:14:26;;;;;;;;;;;;;;;17.37;44.56;98745.97;10325580;28;881;-71
2023/11/28 15:19:22;;;;;;;;;;;;;;;17.36;44.47;98750.38;10327609;28;1890;-71
2023/11/28 15:24:18;;;;;;;;;;;;;;;17.28;44.66;98750.81;10332727;28;823;-71
2023/11/28 15:29:14;;;;;;;;;;;;;;;17.22;44.85;98743.28;10333237;28;873;-71
2023/11/28 15:34:10;;;;;;;;;;;;;;;17.16;44.90;98750.66;10332634;28;1222;-71
2023/11/28 15:39:13;;;;;;;;;;;;;;;17.14;45.19;98752.56;10332111;28;1910;-71
2023/11/28 15:44:09;;;;;;;;;;;;;;;17.13;45.15;98756.09;10332050;28;815;-71
2023/11/28 15:49:05;;;;;;;;;;;;;;;17.12;45.17;98754.41;10332509;28;868;-71
2023/11/28 15:54:01;;;;;;;;;;;;;;;17.10;45.18;98762.41;10331687;28;797;-70
2023/11/28 15:58:57;;;;;;;;;;;;;;;17.13;45.03;98753.47;10331942;28;1894;-70
2023/11/28 16:03:53;;;;;;;;;;;;;;;17.18;45.02;98757.53;10331421;28;790;-70
2023/11/28 16:08:49;;;;;;;;;;;;;;;17.15;45.09;98760.34;10330985;28;874;-72
2023/11/28 16:13:45;;;;;;;;;;;;;;;17.21;44.85;98752.13;10331000;28;813;-72
2023/11/28 16:18:41;;;;;;;;;;;;;;;17.23;44.79;98749.38;10331214;28;1893;-72
2023/11/28 16:23:36;;;;;;;;;;;;;;;17.29;44.92;98749.03;10330500;28;839;-72
2023/11/28 16:28:33;;;;;;;;;;;;;;;17.34;44.78;98740.88;10330594;28;863;-71
2023/11/28 16:33:30;;;;;;;;;;;;;;;17.35;44.90;98738.16;10329833;28;1092;-71
2023/11/28 16:38:26;;;;;;;;;;;;;;;17.37;44.69;98738.06;10329820;28;1952;-71
2023/11/28 16:43:22;;;;;;;;;;;;;;;17.37;44.90;98738.06;10330358;28;964;-71
2023/11/28 16:48:19;;;;;;;;;;;;;;;17.40;44.77;98740.53;10329465;28;993;-71
2023/11/28 16:53:15;;;;;;;;;;;;;;;17.40;44.95;98746.66;10330068;28;799;-71
2023/11/28 16:58:11;;;;;;;;;;;;;;;17.41;45.15;98752.75;10329850;28;902;-71
2023/11/28 17:03:07;;;;;;;;;;;;;;;17.44;44.76;98755.22;10328948;28;1902;-71
2023/11/28 17:08:04;;;;;;;;;;;;;;;17.45;44.62;98767.47;10328746;28;792;-71
2023/11/28 17:13:00;;;;;;;;;;;;;;;17.43;44.72;98769.34;10329299;28;822;-71
2023/11/28 17:17:55;;;;;;;;;;;;;;;17.46;44.81;98763.88;10327748;28;878;-72
2023/11/28 17:22:51;;;;;;;;;;;;;;;17.44;44.83;98753.41;10328695;28;1963;-72
2023/11/28 17:27:47;;;;;;;;;;;;;;;17.44;44.85;98758.69;10328810;28;877;-71
2023/11/28 17:32:44;;;;;;;;;;;;;;;17.48;44.91;98759.38;10327681;28;1251;-71
2023/11/28 17:37:41;;;;;;;;;;;;;;;17.44;45.03;98763.97;10327550;28;981;-71
2023/11/28 17:42:37;;;;;;;;;;;;;;;17.49;44.85;98761.91;10327186;28;1975;-72
2023/11/28 17:47:35;;;;;;;;;;;;;;;17.45;45.17;98772.75;10327154;28;786;-72
2023/11/28 17:52:31;;;;;;;;;;;;;;;17.46;44.91;98770.00;10327245;28;1015;-71
2023/11/28 17:57:27;;;;;;;;;;;;;;;17.45;45.03;98763.03;10326803;28;802;-71
2023/11/28 18:02:23;;;;;;;;;;;;;;;17.51;44.81;98748.66;10327152;28;1897;-71
2023/11/28 18:07:19;;;;;;;;;;;;;;;17.46;44.92;98761.25;10325811;28;1181;-71
2023/11/28 18:12:15;;;;;;;;;;;;;;;17.47;44.97;98763.78;10326285;28;776;-71
2023/11/28 18:17:10;;;;;;;;;;;;;;;17.50;44.68;98755.72;10326749;28;905;-71
2023/11/28 18:22:06;;;;;;;;;;;;;;;17.50;44.61;98761.00;10325943;28;1901;-71
2023/11/28 18:27:02;;;;;;;;;;;;;;;17.51;44.69;98751.28;10325860;28;873;-71
2023/11/28 18:31:58;;;;;;;;;;;;;;;17.51;44.79;98738.13;10326456;28;794;-71
2023/11/28 18:36:54;;;;;;;;;;;;;;;17.51;44.83;98743.41;10327158;28;1164;-72
2023/11/28 18:41:54;;;;;;;;;;;;;;;17.48;44.70;98744.41;10324770;28;1910;-71
2023/11/28 18:46:49;;;;;;;;;;;;;;;17.43;44.93;98745.63;10325997;28;801;-72
2023/11/28 18:51:46;;;;;;;;;;;;;;;17.50;44.58;98744.31;10325168;28;938;-71
2023/11/28 18:56:41;;;;;;;;;;;;;;;17.50;44.66;98747.81;10325305;28;880;-71
2023/11/28 19:01:39;;;;;;;;;;;;;;;17.51;44.55;98743.41;10324477;28;1894;-71
2023/11/28 19:06:35;;;;;;;;;;;;;;;17.53;44.32;98738.88;10325604;28;942;-71
2023/11/28 19:11:31;;;;;;;;;;;;;;;17.49;44.46;98734.72;10324864;28;830;-72
2023/11/28 19:16:27;;;;;;;;;;;;;;;17.48;44.67;98733.88;10324258;28;960;-71
2023/11/28 19:21:23;;;;;;;;;;;;;;;17.52;44.37;98719.56;10325442;28;1898;-71
2023/11/28 19:26:19;;;;;;;;;;;;;;;17.54;44.42;98708.97;10325230;28;878;-71
2023/11/28 19:31:15;;;;;;;;;;;;;;;17.49;44.46;98709.22;10325235;28;874;-71
2023/11/28 19:36:11;;;;;;;;;;;;;;;17.52;44.40;98719.56;10324126;28;1076;-71
2023/11/28 19:41:10;;;;;;;;;;;;;;;17.50;44.47;98718.84;10324354;28;1968;-71
2023/11/28 19:46:06;;;;;;;;;;;;;;;17.51;44.38;98722.31;10324293;28;843;-71
2023/11/28 19:51:02;;;;;;;;;;;;;;;17.55;44.33;98722.97;10323605;28;912;-71
2023/11/28 19:55:57;;;;;;;;;;;;;;;17.50;44.36;98716.22;10324356;28;1023;-71
2023/11/28 20:00:53;;;;;;;;;;;;;;;17.51;44.41;98730.22;10324570;28;1902;-71
2023/11/28 20:05:49;;;;;;;;;;;;;;;17.50;44.19;98713.56;10326387;28;881;-71
2023/11/28 20:10:45;;;;;;;;;;;;;;;17.54;44.24;98706.31;10331003;28;791;-71
2023/11/28 20:15:44;;;;;;;;;;;;;;;17.52;44.30;98693.22;10331124;28;964;-71
2023/11/28 20:20:40;;;;;;;;;;;;;;;17.52;44.04;98709.03;10330709;28;1902;-71
2023/11/28 20:25:36;;;;;;;;;;;;;;;17.54;44.11;98716.88;10330463;28;1034;-72
2023/11/28 20:30:32;;;;;;;;;;;;;;;17.53;44.23;98704.63;10331218;28;813;-72
2023/11/28 20:35:28;;;;;;;;;;;;;;;17.52;44.25;98708.19;10330879;28;1112;-71
2023/11/28 20:40:24;;;;;;;;;;;;;;;17.47;44.46;98704.97;10330466;28;1914;-71
2023/11/28 20:45:20;;;;;;;;;;;;;;;17.44;44.23;98707.78;10330309;28;878;-71
2023/11/28 20:50:16;;;;;;;;;;;;;;;17.44;44.40;98706.00;10330030;28;806;-71
2023/11/28 20:55:11;;;;;;;;;;;;;;;17.43;44.42;98692.94;10329968;28;925;-71
2023/11/28 21:00:09;;;;;;;;;;;;;;;17.43;44.25;98692.94;10329078;28;1897;-72
2023/11/28 21:05:05;;;;;;;;;;;;;;;17.37;44.52;98678.34;10328890;28;831;-71
2023/11/28 21:10:02;;;;;;;;;;;;;;;17.36;44.50;98687.16;10328669;28;798;-72
2023/11/28 21:14:57;;;;;;;;;;;;;;;17.37;44.40;98680.09;10328539;28;941;-71
2023/11/28 21:19:54;;;;;;;;;;;;;;;17.33;44.36;98674.19;10327927;28;1906;-71
2023/11/28 21:24:49;;;;;;;;;;;;;;;17.31;44.34;98669.00;10328813;28;908;-71
2023/11/28 21:29:47;;;;;;;;;;;;;;;17.32;44.14;98646.16;10310137;28;766;-71
2023/11/28 21:34:46;;;;;;;;;;;;;;;17.27;44.34;98642.94;10328284;28;1270;-71
2023/11/28 21:39:41;;;;;;;;;;;;;;;17.26;44.20;98635.97;10327400;28;1906;-71
2023/11/28 21:44:37;;;;;;;;;;;;;;;17.22;44.15;98626.56;10327975;28;972;-71
2023/11/28 21:49:33;;;;;;;;;;;;;;;17.20;44.15;98631.91;10326989;28;883;-71
2023/11/28 21:54:29;;;;;;;;;;;;;;;17.17;44.11;98611.03;10326306;28;905;-71
2023/11/28 21:59:25;;;;;;;;;;;;;;;17.14;44.21;98620.91;10327239;28;1952;-71
2023/11/28 22:04:21;;;;;;;;;;;;;;;17.11;44.20;98624.56;10326580;28;865;-71
2023/11/28 22:09:17;;;;;;;;;;;;;;;17.06;44.40;98630.09;10326395;28;881;-71
2023/11/28 22:14:13;;;;;;;;;;;;;;;17.05;43.55;98624.91;10326826;28;786;-71
2023/11/28 22:19:09;;;;;;;;;;;;;;;17.02;44.18;98623.28;10325963;28;1894;-71
2023/11/28 22:24:05;;;;;;;;;;;;;;;17.00;43.86;98617.28;10326577;28;939;-71
2023/11/28 22:29:00;;;;;;;;;;;;;;;16.97;44.29;98614.81;10325840;28;975;-71
2023/11/28 22:33:56;;;;;;;;;;;;;;;16.97;44.28;98590.28;10326273;28;1297;-71
2023/11/28 22:38:52;;;;;;;;;;;;;;;16.96;43.90;98580.69;10325540;28;1973;-71
2023/11/28 22:43:48;;;;;;;;;;;;;;;16.95;44.24;98571.09;10324977;28;877;-71
2023/11/28 22:48:44;;;;;;;;;;;;;;;16.95;44.31;98565.81;10325342;28;886;-71
2023/11/28 22:53:40;;;;;;;;;;;;;;;16.96;43.31;98563.13;10324682;28;862;-71
2023/11/28 22:58:36;;;;;;;;;;;;;;;16.93;43.79;98573.84;10324595;28;1952;-71
2023/11/28 23:03:32;;;;;;;;;;;;;;;16.93;44.32;98573.84;10324584;28;1099;-71
2023/11/28 23:08:30;;;;;;;;;;;;;;;16.93;43.47;98562.47;10325633;28;902;-71
2023/11/28 23:13:26;;;;;;;;;;;;;;;16.92;43.97;98555.47;10325528;28;801;-71
2023/11/28 23:18:22;;;;;;;;;;;;;;;16.89;43.83;98532.81;10325091;28;802;-71
2023/11/28 23:23:18;;;;;;;;;;;;;;;16.91;43.79;98527.47;10324742;28;1946;-71
2023/11/28 23:28:14;;;;;;;;;;;;;;;16.86;43.83;98511.94;10324150;28;861;-71
2023/11/28 23:33:10;;;;;;;;;;;;;;;16.86;44.14;98509.31;10324524;28;1108;-71
2023/11/28 23:38:06;;;;;;;;;;;;;;;16.85;43.65;98505.84;10325060;28;1033;-71
2023/11/28 23:43:02;;;;;;;;;;;;;;;16.83;43.37;98494.56;10330600;28;2017;-71
2023/11/28 23:47:58;;;;;;;;;;;;;;;16.80;43.56;98478.97;10331829;28;794;-71
2023/11/28 23:52:57;;;;;;;;;;;;;;;16.80;44.17;98484.22;10331692;28;901;-70
2023/11/28 23:57:53;;;;;;;;;;;;;;;16.80;43.40;98473.69;10331505;28;875;-71
